KCOU/COU METAR and TAF weather

Enter ICAO airport designator
Station Type Date Time Source
KCOU METAR 2019/04/25 01:54 UTC NOAA

KCOU 250154Z 00000KT 8SM OVC031 16/14 A2985 RMK AO2 SLP105 T01560139


Station Type Date Time Source
KCOU Decoded METAR 2019/04/25 01:54 UTC NOAA

COLUMBIA REGIONAL AIRPORT, MO, United States (KCOU) 38-49N 092-13W 271M
Apr 24, 2019 - 09:54 PM EDT / 2019.04.25 0154 UTC
Wind: Calm:0
Visibility: 8 mile(s):0
Sky conditions: overcast
Temperature: 60.1 F (15.6 C)
Dew Point: 57.0 F (13.9 C)
Relative Humidity: 89%
Pressure (altimeter): 29.85 in. Hg (1010 hPa)
ob: KCOU 250154Z 00000KT 8SM OVC031 16/14 A2985 RMK AO2 SLP105 T01560139
cycle: 2

Station Type Date Time Source
KCOU TAF 2019/04/25 01:24 UTC NOAA

KCOU 250103Z 2501/2524 15004KT P6SM OVC025
FM250200 VRB03KT P6SM OVC015
FM251100 VRB03KT 1SM BR OVC003
FM251700 VRB04KT P6SM BKN010
FM252100 33007KT P6SM SCT070
FM252300 34010KT P6SM VCSH BKN070

Example: see airport list